Terminal Aerodrome Forecast
Issued by NWS

Home | Current Version | Previous Version | Text Only | Print | Product List | Glossary On
Versions: 1 2 3 4 5 6 7 8 9 10 11 12 13 14 15 16 17 18 19 20 21 22 23 24 25 26 27 28 29 30 31 32 33 34 35 36
000
FTAK31 PAFA 220526
TAFAUN
TAF
PAUN 220526Z 2206/2306 VRB04KT P6SM -SHRA BKN030 OVC120
     FM220900 17005KT 6SM -RA BR OVC050
     FM221200 22009KT 4SM -RA BR OVC015
     FM230000 27007KT 6SM -RA BR OVC015=

USA.gov is the U.S. government's official web portal to all federal, state and local government web resources and services.